createdAt,value
2022-08-01T00:02:10.709Z,17.00
2022-08-01T00:04:39.724Z,16.98
2022-08-01T00:10:44.255Z,16.86
2022-08-01T00:13:11.725Z,16.84
2022-08-01T00:16:00.519Z,16.73
2022-08-01T00:18:28.041Z,16.70
2022-08-01T00:21:29.281Z,16.64
2022-08-01T00:23:56.765Z,16.64
2022-08-01T00:26:24.196Z,16.68
2022-08-01T00:30:04.755Z,16.72
2022-08-01T00:39:48.446Z,16.74
2022-08-01T00:42:16.420Z,16.67
2022-08-01T00:44:46.376Z,16.57
2022-08-01T00:50:39.951Z,16.45
2022-08-01T00:53:07.480Z,16.34
2022-08-01T00:56:03.920Z,16.18
2022-08-01T00:58:34.934Z,16.15
2022-08-01T01:01:03.795Z,16.17
2022-08-01T01:07:56.560Z,15.99
2022-08-01T01:10:44.337Z,15.92
2022-08-01T01:13:36.557Z,15.84
2022-08-01T01:16:20.422Z,15.82
2022-08-01T01:19:30.727Z,15.84
2022-08-01T01:22:58.827Z,15.82
2022-08-01T01:25:26.253Z,15.78
2022-08-01T01:31:22.516Z,15.74
2022-08-01T01:33:54.403Z,15.68
2022-08-01T01:36:25.851Z,15.66
2022-08-01T01:39:15.383Z,15.66
2022-08-01T01:42:07.525Z,15.62
2022-08-01T01:44:35.631Z,15.57
2022-08-01T01:47:04.132Z,15.59
2022-08-01T01:49:40.226Z,15.49
2022-08-01T01:52:09.728Z,15.47
2022-08-01T01:54:48.257Z,15.40
2022-08-01T01:57:29.317Z,15.38
2022-08-01T02:00:15.471Z,15.37
2022-08-01T02:02:44.496Z,15.38
2022-08-01T02:05:13.990Z,15.35
2022-08-01T02:11:22.787Z,15.22
2022-08-01T02:25:14.351Z,15.04
2022-08-01T02:27:47.032Z,15.04
2022-08-01T02:34:14.403Z,14.98
2022-08-01T02:37:04.253Z,14.92
2022-08-01T02:54:54.574Z,14.69
2022-08-01T03:01:51.278Z,14.61
2022-08-01T03:04:20.709Z,14.65
2022-08-01T03:10:18.759Z,14.59
2022-08-01T03:12:48.316Z,14.60
2022-08-01T03:15:26.247Z,14.62
2022-08-01T03:22:04.923Z,14.50
2022-08-01T03:24:34.343Z,14.53
2022-08-01T03:27:03.373Z,14.51
2022-08-01T03:29:33.176Z,14.53
2022-08-01T03:32:02.750Z,14.53
2022-08-01T03:34:31.353Z,14.49
2022-08-01T03:40:33.982Z,14.33
2022-08-01T03:43:36.522Z,14.28
2022-08-01T03:46:11.190Z,14.30
2022-08-01T03:48:44.107Z,14.26
2022-08-01T03:51:13.513Z,14.24
2022-08-01T03:53:43.513Z,14.21
2022-08-01T03:56:13.303Z,14.23
2022-08-01T04:02:16.068Z,14.17
2022-08-01T04:09:01.131Z,14.08
2022-08-01T04:15:04.444Z,14.12
2022-08-01T04:17:33.973Z,14.07
2022-08-01T04:20:01.446Z,14.04
2022-08-01T04:22:29.359Z,14.04
2022-08-01T04:28:35.753Z,14.03
2022-08-01T04:38:33.006Z,14.08
2022-08-01T04:41:51.909Z,14.06
2022-08-01T04:44:19.475Z,14.11
2022-08-01T04:46:49.522Z,14.08
2022-08-01T04:49:17.853Z,14.06
2022-08-01T04:55:20.102Z,13.97
2022-08-01T04:58:13.263Z,13.95
2022-08-01T05:00:43.650Z,13.96
2022-08-01T05:04:17.125Z,13.90
2022-08-01T05:07:17.036Z,13.89
2022-08-01T05:09:47.173Z,13.93
2022-08-01T05:13:04.881Z,13.90
2022-08-01T05:15:32.367Z,13.90
2022-08-01T05:24:50.136Z,14.12
2022-08-01T05:27:40.751Z,14.18
2022-08-01T05:30:10.252Z,14.22
2022-08-01T05:32:37.912Z,14.23
2022-08-01T05:42:14.911Z,14.25
2022-08-01T05:44:42.405Z,14.27
2022-08-01T05:47:09.856Z,14.29
2022-08-01T05:49:37.352Z,14.29
2022-08-01T05:55:54.234Z,14.28
2022-08-01T06:01:59.265Z,14.41
2022-08-01T06:04:26.840Z,14.47
2022-08-01T06:14:17.288Z,14.61
2022-08-01T06:16:44.781Z,14.65
2022-08-01T06:19:54.842Z,14.66
2022-08-01T06:22:22.651Z,14.69
2022-08-01T06:28:46.752Z,14.74
2022-08-01T06:31:49.225Z,14.74
2022-08-01T06:34:16.591Z,14.71
2022-08-01T06:36:43.994Z,14.78
2022-08-01T06:39:15.708Z,14.85
2022-08-01T06:41:43.178Z,14.90
2022-08-01T06:44:10.738Z,14.95
2022-08-01T06:46:40.471Z,15.00
2022-08-01T06:49:07.947Z,15.06
2022-08-01T06:52:23.542Z,15.13
2022-08-01T06:54:51.046Z,15.20
2022-08-01T06:57:18.588Z,15.27
2022-08-01T06:59:57.310Z,15.32
2022-08-01T07:06:12.576Z,15.42
2022-08-01T07:09:09.437Z,15.46
2022-08-01T07:11:40.251Z,15.54
2022-08-01T07:14:07.812Z,15.60
2022-08-01T07:16:35.362Z,15.65
2022-08-01T07:19:02.999Z,15.71
2022-08-01T07:25:11.215Z,15.87
2022-08-01T07:27:38.822Z,15.95
2022-08-01T07:30:07.201Z,16.03
2022-08-01T07:32:36.026Z,16.10
2022-08-01T07:39:51.212Z,16.30
2022-08-01T07:42:33.796Z,16.37
2022-08-01T07:45:02.425Z,16.47
2022-08-01T07:47:29.849Z,16.59
2022-08-01T07:50:01.788Z,16.69
2022-08-01T07:52:31.400Z,16.83
2022-08-01T07:54:59.961Z,16.95
2022-08-01T07:57:27.544Z,17.11
2022-08-01T07:59:55.454Z,17.30
2022-08-01T08:02:22.970Z,17.47
2022-08-01T08:04:50.615Z,17.72
2022-08-01T08:07:18.164Z,17.99
2022-08-01T08:09:45.628Z,18.28
2022-08-01T08:12:18.814Z,18.67
2022-08-01T08:14:56.823Z,19.13
2022-08-01T08:17:35.916Z,19.68
2022-08-01T08:20:06.507Z,20.36
2022-08-01T08:22:36.983Z,21.09
2022-08-01T08:25:05.026Z,21.88
2022-08-01T08:27:54.323Z,22.60
2022-08-01T08:38:03.265Z,24.83
2022-08-01T08:40:51.670Z,25.37
2022-08-01T08:43:39.656Z,25.74
2022-08-01T08:46:09.472Z,26.01
2022-08-01T08:48:38.570Z,26.17
2022-08-01T08:51:06.968Z,26.32
2022-08-01T08:53:35.080Z,26.26
2022-08-01T08:59:53.083Z,25.63
2022-08-01T09:05:47.411Z,24.36
2022-08-01T09:08:38.829Z,24.11
2022-08-01T09:11:26.743Z,23.96
2022-08-01T09:14:36.620Z,23.82
2022-08-01T09:17:09.751Z,23.52
2022-08-01T09:23:34.934Z,22.84
2022-08-01T09:29:37.678Z,22.26
2022-08-01T09:32:13.910Z,22.12
2022-08-01T09:34:47.424Z,22.02
2022-08-01T09:37:19.068Z,21.96
2022-08-01T09:39:58.642Z,21.96
2022-08-01T09:46:16.285Z,22.14
2022-08-01T09:49:07.425Z,22.41
2022-08-01T09:51:59.422Z,22.64
2022-08-01T09:54:34.597Z,22.83
2022-08-01T09:57:17.181Z,23.26
2022-08-01T09:59:58.358Z,23.68
2022-08-01T10:02:44.282Z,24.17
2022-08-01T10:05:18.800Z,24.45
2022-08-01T10:08:00.325Z,24.64
2022-08-01T10:10:29.095Z,24.68
2022-08-01T10:13:00.876Z,24.83
2022-08-01T10:15:37.223Z,24.96
2022-08-01T10:18:26.274Z,24.96
2022-08-01T10:20:56.564Z,24.86
2022-08-01T10:23:39.848Z,24.83
2022-08-01T10:26:09.583Z,24.69
2022-08-01T10:28:58.004Z,24.52
2022-08-01T10:31:32.202Z,24.48
2022-08-01T10:34:01.366Z,24.47
2022-08-01T10:36:29.798Z,24.26
2022-08-01T10:38:57.713Z,24.29
2022-08-01T10:41:53.992Z,24.39
2022-08-01T10:44:26.100Z,24.34
2022-08-01T10:47:03.899Z,24.15
2022-08-01T10:49:39.716Z,24.04
2022-08-01T10:52:08.270Z,23.92
2022-08-01T10:55:06.378Z,23.80
2022-08-01T10:57:52.740Z,23.75
2022-08-01T11:00:33.831Z,23.60
2022-08-01T11:03:04.859Z,23.52
2022-08-01T11:05:36.599Z,23.48
2022-08-01T11:08:24.131Z,23.45
2022-08-01T11:11:02.453Z,23.35
2022-08-01T11:14:12.945Z,23.25
2022-08-01T11:16:43.224Z,23.18
2022-08-01T11:19:54.961Z,23.08
2022-08-01T11:22:25.496Z,23.00
2022-08-01T11:24:58.000Z,22.95
2022-08-01T11:27:33.717Z,22.84
2022-08-01T11:30:13.410Z,22.81
2022-08-01T11:33:10.509Z,22.79
2022-08-01T11:35:37.516Z,22.74
2022-08-01T11:38:25.802Z,22.69
2022-08-01T11:41:14.823Z,22.63
2022-08-01T11:44:16.513Z,22.55
2022-08-01T11:46:51.120Z,22.47
2022-08-01T11:49:29.963Z,22.37
2022-08-01T11:52:08.912Z,22.27
2022-08-01T11:55:00.183Z,22.20
2022-08-01T11:58:02.605Z,22.18
2022-08-01T12:00:34.187Z,22.16
2022-08-01T12:03:05.358Z,22.18
2022-08-01T12:05:35.028Z,22.25
2022-08-01T12:08:04.487Z,22.24
2022-08-01T12:10:47.280Z,22.25
2022-08-01T12:13:19.220Z,22.19
2022-08-01T12:15:56.696Z,22.15
2022-08-01T12:18:24.659Z,22.14
2022-08-01T12:21:05.857Z,22.11
2022-08-01T12:23:34.439Z,22.15
2022-08-01T12:26:02.792Z,22.16
2022-08-01T12:28:30.276Z,22.21
2022-08-01T12:30:58.194Z,22.21
2022-08-01T12:33:25.915Z,22.20
2022-08-01T12:35:54.036Z,22.21
2022-08-01T12:38:28.062Z,22.29
2022-08-01T12:41:30.492Z,22.36
2022-08-01T12:43:58.127Z,22.45
2022-08-01T12:46:27.260Z,22.50
2022-08-01T12:48:54.966Z,22.55
2022-08-01T12:51:22.568Z,22.59
2022-08-01T12:53:50.028Z,22.67
2022-08-01T12:56:33.144Z,22.79
2022-08-01T12:59:01.735Z,22.92
2022-08-01T13:01:29.879Z,23.02
2022-08-01T13:04:02.863Z,23.10
2022-08-01T13:06:30.624Z,23.14
2022-08-01T13:09:08.749Z,23.11
2022-08-01T13:11:38.066Z,23.19
2022-08-01T13:14:28.853Z,23.23
2022-08-01T13:16:57.562Z,23.27
2022-08-01T13:19:46.196Z,23.23
2022-08-01T13:22:13.780Z,23.12
2022-08-01T13:24:41.495Z,23.01
2022-08-01T13:27:20.884Z,22.87
2022-08-01T13:29:50.976Z,22.75
2022-08-01T13:32:28.641Z,22.59
2022-08-01T13:35:39.862Z,22.35
2022-08-01T13:38:07.345Z,22.28
2022-08-01T13:40:34.888Z,22.20
2022-08-01T13:43:02.453Z,22.06
2022-08-01T13:46:19.342Z,21.92
2022-08-01T13:48:46.913Z,21.82
2022-08-01T13:51:27.805Z,21.80
2022-08-01T13:53:55.827Z,21.82
2022-08-01T13:56:44.108Z,21.83
2022-08-01T13:59:11.670Z,21.87
2022-08-01T14:01:39.287Z,21.86
2022-08-01T14:04:17.728Z,21.72
2022-08-01T14:06:45.186Z,21.70
2022-08-01T14:09:32.727Z,21.65
2022-08-01T14:12:10.178Z,21.71
2022-08-01T14:14:39.268Z,21.69
2022-08-01T14:17:06.881Z,21.69
2022-08-01T14:19:38.777Z,21.71
2022-08-01T14:22:07.630Z,21.72
2022-08-01T14:24:36.244Z,21.60
2022-08-01T14:27:57.931Z,21.42
2022-08-01T14:31:07.442Z,21.31
2022-08-01T14:33:35.093Z,21.27
2022-08-01T14:36:28.619Z,21.26
2022-08-01T14:38:52.162Z,21.25
2022-08-01T14:41:22.624Z,21.27
2022-08-01T14:43:50.056Z,21.24
2022-08-01T14:46:17.519Z,21.20
2022-08-01T14:48:45.002Z,21.21
2022-08-01T14:54:37.857Z,21.08
2022-08-01T15:01:08.296Z,21.02
2022-08-01T15:03:35.750Z,21.08
2022-08-01T15:06:03.531Z,21.12
2022-08-01T15:08:32.712Z,21.12
2022-08-01T15:11:00.303Z,21.17
2022-08-01T15:13:27.881Z,21.17
2022-08-01T15:15:55.383Z,21.15
2022-08-01T15:18:29.340Z,21.13
2022-08-01T15:20:58.562Z,21.09
2022-08-01T15:23:26.077Z,21.08
2022-08-01T15:25:53.792Z,21.11
2022-08-01T15:28:21.310Z,21.13
2022-08-01T15:30:48.760Z,21.13
2022-08-01T15:33:16.505Z,21.11
2022-08-01T15:35:44.028Z,21.07
2022-08-01T15:38:11.483Z,21.02
2022-08-01T15:40:39.002Z,20.99
2022-08-01T15:43:06.631Z,20.94
2022-08-01T15:45:49.580Z,20.93
2022-08-01T15:48:17.986Z,20.89
2022-08-01T15:50:45.755Z,20.89
2022-08-01T15:53:13.276Z,20.88
2022-08-01T15:55:40.852Z,20.87
2022-08-01T15:58:11.644Z,20.86
2022-08-01T16:00:40.359Z,20.84
2022-08-01T16:03:10.298Z,20.83
2022-08-01T16:05:43.515Z,20.86
2022-08-01T16:08:12.867Z,20.86
2022-08-01T16:10:40.829Z,20.85
2022-08-01T16:13:08.774Z,20.84
2022-08-01T16:15:37.803Z,20.84
2022-08-01T16:18:13.184Z,20.81
2022-08-01T16:20:45.406Z,20.88
2022-08-01T16:23:15.038Z,20.96
2022-08-01T16:25:44.687Z,21.03
2022-08-01T16:28:12.470Z,21.06
2022-08-01T16:30:47.800Z,21.08
2022-08-01T16:34:05.182Z,21.07
2022-08-01T16:37:10.224Z,20.96
2022-08-01T16:40:11.200Z,20.90
2022-08-01T16:42:38.739Z,20.93
2022-08-01T16:45:12.764Z,20.96
2022-08-01T16:47:42.203Z,20.97
2022-08-01T16:50:10.854Z,20.91
2022-08-01T16:52:41.718Z,20.84
2022-08-01T16:55:11.004Z,20.83
2022-08-01T16:57:38.956Z,20.80
2022-08-01T17:00:21.174Z,20.80
2022-08-01T17:02:53.466Z,20.78
2022-08-01T17:05:21.616Z,20.76
2022-08-01T17:07:49.279Z,20.78
2022-08-01T17:10:16.813Z,20.77
2022-08-01T17:12:44.356Z,20.76
2022-08-01T17:15:12.366Z,20.73
2022-08-01T17:17:40.699Z,20.70
2022-08-01T17:20:08.792Z,20.72
2022-08-01T17:22:36.302Z,20.74
2022-08-01T17:28:49.809Z,20.69
2022-08-01T17:31:17.473Z,20.69
2022-08-01T17:33:47.902Z,20.70
2022-08-01T17:36:21.323Z,20.68
2022-08-01T17:38:48.740Z,20.61
2022-08-01T17:41:16.230Z,20.65
2022-08-01T17:43:50.998Z,20.64
2022-08-01T17:46:18.524Z,20.63
2022-08-01T17:48:46.874Z,20.66
2022-08-01T17:51:18.111Z,20.69
2022-08-01T17:54:30.656Z,20.68
2022-08-01T17:56:58.116Z,20.72
2022-08-01T17:59:25.639Z,20.78
2022-08-01T18:01:53.099Z,20.81
2022-08-01T18:04:20.692Z,20.82
2022-08-01T18:06:58.308Z,20.85
2022-08-01T18:09:26.628Z,20.92
2022-08-01T18:11:54.132Z,20.93
2022-08-01T18:14:21.893Z,20.97
2022-08-01T18:17:09.958Z,20.99
2022-08-01T18:19:39.720Z,20.99
2022-08-01T18:22:19.528Z,20.93
2022-08-01T18:24:55.009Z,20.91
2022-08-01T18:27:22.545Z,20.91
2022-08-01T18:29:50.231Z,20.90
2022-08-01T18:32:17.733Z,20.92
2022-08-01T18:34:45.444Z,20.95
2022-08-01T18:37:16.790Z,20.96
2022-08-01T18:40:28.574Z,20.92
2022-08-01T18:42:56.068Z,20.92
2022-08-01T18:45:30.874Z,20.88
2022-08-01T18:48:16.078Z,20.86
2022-08-01T18:50:44.083Z,20.88
2022-08-01T18:56:56.949Z,20.86
2022-08-01T19:07:24.392Z,20.74
2022-08-01T19:10:04.519Z,20.73
2022-08-01T19:15:58.012Z,20.68
2022-08-01T19:18:26.725Z,20.68
2022-08-01T19:20:54.397Z,20.67
2022-08-01T19:23:40.886Z,20.64
2022-08-01T19:30:02.030Z,20.56
2022-08-01T19:36:47.829Z,20.54
2022-08-01T19:39:21.667Z,20.52
2022-08-01T19:41:51.277Z,20.49
2022-08-01T19:44:22.810Z,20.46
2022-08-01T19:46:52.035Z,20.39
2022-08-01T19:52:57.803Z,20.30
2022-08-01T19:55:47.297Z,20.24
2022-08-01T19:58:52.821Z,20.21
2022-08-01T20:01:28.095Z,20.21
2022-08-01T20:15:39.356Z,20.04
2022-08-01T20:18:27.131Z,20.02
2022-08-01T20:20:57.207Z,20.04
2022-08-01T20:27:06.553Z,20.04
2022-08-01T20:30:04.972Z,20.01
2022-08-01T20:32:34.668Z,20.01
2022-08-01T20:35:51.986Z,19.98
2022-08-01T20:38:24.124Z,19.97
2022-08-01T20:41:28.388Z,19.93
2022-08-01T20:43:59.649Z,19.93
2022-08-01T20:46:28.854Z,19.89
2022-08-01T20:49:27.267Z,19.90
2022-08-01T20:51:56.817Z,19.92
2022-08-01T20:54:24.388Z,19.93
2022-08-01T20:57:08.026Z,19.90
2022-08-01T21:00:23.557Z,19.88
2022-08-01T21:03:06.756Z,19.87
2022-08-01T21:05:41.959Z,19.86
2022-08-01T21:08:41.037Z,19.84
2022-08-01T21:11:22.037Z,19.85
2022-08-01T21:14:02.526Z,19.84
2022-08-01T21:16:34.270Z,19.86
2022-08-01T21:19:27.427Z,19.82
2022-08-01T21:22:11.072Z,19.84
2022-08-01T21:24:58.706Z,19.84
2022-08-01T21:27:32.823Z,19.83
2022-08-01T21:30:08.270Z,19.82
2022-08-01T21:32:36.945Z,19.82
2022-08-01T21:35:15.708Z,19.83
2022-08-01T21:37:52.520Z,19.84
2022-08-01T21:40:24.736Z,19.83
2022-08-01T21:42:53.577Z,19.80
2022-08-01T21:45:26.272Z,19.81
2022-08-01T21:47:57.420Z,19.78
2022-08-01T21:54:13.550Z,19.79
2022-08-01T21:56:54.255Z,19.80
2022-08-01T21:59:51.386Z,19.79
2022-08-01T22:02:29.763Z,19.77
2022-08-01T22:05:08.700Z,19.77
2022-08-01T22:07:44.328Z,19.78
2022-08-01T22:15:17.628Z,19.82
2022-08-01T22:17:49.711Z,19.84
2022-08-01T22:20:20.814Z,19.84
2022-08-01T22:23:09.914Z,19.84
2022-08-01T22:25:37.666Z,19.88
2022-08-01T22:31:57.017Z,19.89
2022-08-01T22:34:27.569Z,19.89
2022-08-01T22:36:56.329Z,19.88
2022-08-01T22:43:29.754Z,19.85
2022-08-01T22:46:24.381Z,19.85
2022-08-01T22:49:09.508Z,19.85
2022-08-01T22:51:54.489Z,19.85
2022-08-01T22:54:38.789Z,19.84
2022-08-01T22:57:27.033Z,19.82
2022-08-01T23:00:07.366Z,19.77
2022-08-01T23:02:45.606Z,19.79
2022-08-01T23:05:47.176Z,19.77
2022-08-01T23:08:22.208Z,19.76
2022-08-01T23:10:52.201Z,19.77
2022-08-01T23:13:20.823Z,19.75
2022-08-01T23:15:52.534Z,19.76
2022-08-01T23:18:21.557Z,19.76
2022-08-01T23:20:50.609Z,19.75
2022-08-01T23:23:30.950Z,19.75
2022-08-01T23:26:00.839Z,19.73
2022-08-01T23:28:48.675Z,19.73
2022-08-01T23:31:16.998Z,19.73
2022-08-01T23:33:49.333Z,19.75
2022-08-01T23:36:17.646Z,19.73
2022-08-01T23:38:45.819Z,19.73
2022-08-01T23:41:16.147Z,19.70
2022-08-01T23:43:51.999Z,19.69
2022-08-01T23:46:19.836Z,19.69
2022-08-01T23:48:47.504Z,19.70
2022-08-01T23:51:24.273Z,19.70
2022-08-01T23:53:52.552Z,19.70
2022-08-01T23:56:25.493Z,19.67
2022-08-01T23:58:53.139Z,19.68
